Time;durP1;ratioP1;P1;durP2;ratioP2;P2;SDS_P1;SDS_P2;PMS_P1;PMS_P2;Temp;Humidity;BMP_temperature;BMP_pressure;BME280_temperature;BME280_humidity;BME280_pressure;Samples;Min_cycle;Max_cycle;Signal;HPM_P1;HPM_P2
2022/07/24 00:00:33;;;;;;;11.63;7.13;;;;;;;20.28;100.00;96603.78;5039915;28;20228;-68
2022/07/24 00:02:59;;;;;;;11.23;6.75;;;;;;;20.35;100.00;96602.66;5038655;28;20209;-68
2022/07/24 00:05:26;;;;;;;11.95;7.25;;;;;;;20.36;100.00;96611.47;5039787;28;20212;-69
2022/07/24 00:07:52;;;;;;;14.90;7.10;;;;;;;20.49;100.00;96609.44;5039771;28;20566;-68
2022/07/24 00:10:19;;;;;;;15.18;7.50;;;;;;;20.61;100.00;96612.13;5039617;28;20204;-68
2022/07/24 00:12:45;;;;;;;12.43;7.68;;;;;;;20.59;100.00;96604.31;5039235;28;20225;-68
2022/07/24 00:15:13;;;;;;;15.43;8.43;;;;;;;20.60;100.00;96600.59;5039493;28;20201;-68
2022/07/24 00:17:40;;;;;;;15.77;8.30;;;;;;;20.69;100.00;96604.56;5039257;28;20224;-68
2022/07/24 00:20:08;;;;;;;14.27;8.10;;;;;;;20.82;100.00;96603.59;5039638;28;20232;-68
2022/07/24 00:22:35;;;;;;;14.07;8.52;;;;;;;20.95;100.00;96599.66;5038720;28;20220;-68
2022/07/24 00:25:01;;;;;;;13.35;8.05;;;;;;;20.76;100.00;96596.47;5038998;28;20201;-68
2022/07/24 00:27:28;;;;;;;17.63;8.15;;;;;;;20.71;100.00;96602.50;5039683;28;20212;-68
2022/07/24 00:29:54;;;;;;;15.45;8.73;;;;;;;20.85;100.00;96604.75;5039539;28;20205;-67
2022/07/24 00:32:22;;;;;;;16.42;8.65;;;;;;;20.96;100.00;96608.47;5038249;28;20736;-68
2022/07/24 00:34:49;;;;;;;13.18;8.25;;;;;;;20.84;100.00;96603.13;5039092;28;20201;-68
2022/07/24 00:37:15;;;;;;;22.27;8.60;;;;;;;20.95;100.00;96605.00;5038880;28;20685;-69
2022/07/24 00:39:42;;;;;;;16.33;9.15;;;;;;;20.77;100.00;96611.50;5039153;28;20240;-68
2022/07/24 00:42:08;;;;;;;17.95;8.90;;;;;;;20.93;100.00;96612.44;5038711;28;21348;-68
2022/07/24 00:44:35;;;;;;;16.90;8.93;;;;;;;20.75;100.00;96605.53;5039188;28;20208;-68
2022/07/24 00:47:01;;;;;;;18.45;10.02;;;;;;;20.83;100.00;96605.22;5039094;28;20201;-67
2022/07/24 00:49:29;;;;;;;17.95;10.07;;;;;;;20.90;100.00;96618.28;5039255;28;20208;-68
2022/07/24 00:51:55;;;;;;;20.45;9.32;;;;;;;20.71;100.00;96620.41;5038611;28;20240;-68
2022/07/24 00:54:23;;;;;;;15.38;9.10;;;;;;;20.59;100.00;96623.06;5038200;28;20208;-67
2022/07/24 00:56:52;;;;;;;20.65;9.27;;;;;;;20.88;100.00;96622.22;5038681;28;20212;-67
2022/07/24 00:59:19;;;;;;;17.10;9.07;;;;;;;21.00;100.00;96613.16;5039230;28;20581;-68
2022/07/24 01:01:46;;;;;;;15.43;8.50;;;;;;;20.92;100.00;96612.69;5039225;28;20275;-68
2022/07/24 01:04:13;;;;;;;14.68;8.70;;;;;;;20.98;100.00;96607.22;5037113;28;20201;-68
2022/07/24 01:06:43;;;;;;;16.65;9.48;;;;;;;21.08;100.00;96604.78;5038037;28;20606;-67
2022/07/24 01:09:09;;;;;;;18.33;8.93;;;;;;;20.97;100.00;96610.94;5038323;28;20205;-67
2022/07/24 01:11:37;;;;;;;17.02;8.90;;;;;;;21.08;100.00;96606.66;5037827;28;20220;-68
2022/07/24 01:14:03;;;;;;;17.88;9.23;;;;;;;21.02;100.00;96602.22;5037458;28;20829;-68
2022/07/24 01:16:30;;;;;;;18.92;9.90;;;;;;;21.03;100.00;96609.22;5037841;28;20491;-68
2022/07/24 01:18:56;;;;;;;16.10;8.73;;;;;;;20.99;100.00;96599.97;5038119;28;20221;-68
2022/07/24 01:21:25;;;;;;;17.95;10.05;;;;;;;20.67;100.00;96600.50;5037085;28;20484;-67
2022/07/24 01:23:51;;;;;;;17.30;9.13;;;;;;;20.74;100.00;96601.25;5036746;28;20209;-67
2022/07/24 01:26:18;;;;;;;20.63;9.93;;;;;;;20.60;100.00;96594.44;5037576;28;20213;-68
2022/07/24 01:28:44;;;;;;;19.10;9.48;;;;;;;20.53;100.00;96599.06;5037313;28;20205;-68
2022/07/24 01:31:11;;;;;;;19.30;9.73;;;;;;;20.68;100.00;96599.44;5037875;28;20220;-68
2022/07/24 01:33:37;;;;;;;16.92;9.45;;;;;;;20.48;100.00;96602.44;5036924;28;20206;-68
2022/07/24 01:36:04;;;;;;;14.57;8.65;;;;;;;20.38;100.00;96612.09;5037043;28;20205;-68
2022/07/24 01:38:32;;;;;;;19.98;9.95;;;;;;;20.55;100.00;96599.66;5037378;28;20200;-68
2022/07/24 01:40:58;;;;;;;15.88;9.43;;;;;;;20.57;100.00;96603.75;5037509;28;20700;-68
2022/07/24 01:43:25;;;;;;;18.20;9.90;;;;;;;20.68;100.00;96597.56;5036677;28;20201;-68
2022/07/24 01:45:51;;;;;;;17.67;9.20;;;;;;;20.69;100.00;96596.53;5036729;28;20201;-68
2022/07/24 01:48:18;;;;;;;17.33;9.43;;;;;;;20.66;100.00;96590.81;5037271;28;20209;-68
2022/07/24 01:50:44;;;;;;;19.35;9.60;;;;;;;20.42;100.00;96597.19;5037053;28;20220;-68
2022/07/24 01:53:11;;;;;;;17.25;8.32;;;;;;;20.39;100.00;96598.47;5036796;28;20642;-68
2022/07/24 01:55:39;;;;;;;17.23;8.65;;;;;;;20.74;100.00;96601.25;5036839;28;20220;-68
2022/07/24 01:58:05;;;;;;;18.55;9.77;;;;;;;20.71;100.00;96596.31;5036456;28;20670;-67
2022/07/24 02:00:31;;;;;;;17.55;9.52;;;;;;;20.63;100.00;96599.31;5037153;28;20225;-68
2022/07/24 02:02:58;;;;;;;16.17;9.13;;;;;;;20.66;100.00;96593.50;5036436;28;20225;-68
2022/07/24 02:05:25;;;;;;;15.90;8.63;;;;;;;20.10;100.00;96601.16;5036347;28;20204;-68
2022/07/24 02:07:56;;;;;;;16.27;8.73;;;;;;;20.27;100.00;96599.47;5036908;28;20208;-69
2022/07/24 02:10:23;;;;;;;14.15;8.90;;;;;;;20.07;100.00;96598.91;5036964;28;20619;-68
2022/07/24 02:12:51;;;;;;;17.75;8.65;;;;;;;20.14;100.00;96588.13;5037131;28;20298;-69
2022/07/24 02:15:18;;;;;;;16.63;8.60;;;;;;;19.70;100.00;96601.84;5036269;28;20193;-68
2022/07/24 02:17:47;;;;;;;21.40;9.63;;;;;;;20.02;100.00;96604.16;5036282;28;20576;-67
2022/07/24 02:20:14;;;;;;;16.85;8.80;;;;;;;19.88;100.00;96605.34;5036271;28;20723;-67
2022/07/24 02:22:40;;;;;;;16.73;9.13;;;;;;;19.79;100.00;96612.03;5032176;28;20231;-69
2022/07/24 02:25:08;;;;;;;14.82;8.32;;;;;;;19.75;100.00;96602.81;5036027;28;20205;-68
2022/07/24 02:27:35;;;;;;;14.07;9.30;;;;;;;19.78;100.00;96601.53;5036606;28;20213;-68
2022/07/24 02:30:04;;;;;;;16.48;8.68;;;;;;;19.72;100.00;96603.25;5037210;28;20248;-68
2022/07/24 02:32:30;;;;;;;18.65;9.32;;;;;;;19.81;100.00;96598.44;5035634;28;20232;-68
2022/07/24 02:34:57;;;;;;;17.00;8.60;;;;;;;19.81;100.00;96591.22;5036142;28;20220;-68
2022/07/24 02:37:23;;;;;;;17.88;9.40;;;;;;;19.76;100.00;96593.75;5036436;28;20204;-68
2022/07/24 02:39:50;;;;;;;15.20;9.13;;;;;;;19.87;100.00;96598.34;5036271;28;20593;-68
2022/07/24 02:42:16;;;;;;;15.07;8.70;;;;;;;19.65;100.00;96605.22;5035574;28;20240;-68
2022/07/24 02:44:43;;;;;;;16.42;9.52;;;;;;;19.80;100.00;96597.59;5036908;28;20205;-68
2022/07/24 02:47:10;;;;;;;16.77;9.27;;;;;;;19.54;100.00;96601.63;5035963;28;20209;-69
2022/07/24 02:49:37;;;;;;;16.48;8.80;;;;;;;19.56;100.00;96599.56;5036113;28;20471;-69
2022/07/24 02:52:04;;;;;;;17.10;9.73;;;;;;;19.65;100.00;96607.06;5035988;28;20324;-68
2022/07/24 02:54:31;;;;;;;20.90;9.57;;;;;;;19.67;100.00;96608.47;5035757;28;20797;-67
2022/07/24 02:56:57;;;;;;;16.20;8.48;;;;;;;19.50;100.00;96606.63;5035863;28;20208;-69
2022/07/24 02:59:24;;;;;;;16.33;9.20;;;;;;;19.45;100.00;96608.31;5036309;28;20204;-69
2022/07/24 03:01:50;;;;;;;19.88;9.52;;;;;;;19.19;100.00;96600.59;5033812;28;20229;-68
2022/07/24 03:04:18;;;;;;;17.70;9.32;;;;;;;19.17;100.00;96603.47;5035440;28;20500;-67
2022/07/24 03:06:45;;;;;;;17.38;9.60;;;;;;;19.34;100.00;96601.06;5035956;28;20211;-68
2022/07/24 03:09:11;;;;;;;18.85;9.15;;;;;;;19.27;100.00;96610.97;5035419;28;20208;-68
2022/07/24 03:11:38;;;;;;;21.15;10.05;;;;;;;19.36;100.00;96607.81;5035994;28;20233;-68
2022/07/24 03:14:04;;;;;;;18.67;9.00;;;;;;;19.23;100.00;96604.44;5035729;28;20384;-69
2022/07/24 03:16:31;;;;;;;15.95;9.20;;;;;;;18.99;100.00;96603.44;5035291;28;20201;-68
2022/07/24 03:18:57;;;;;;;16.52;9.10;;;;;;;18.99;100.00;96602.59;5035942;28;20205;-69
2022/07/24 03:21:25;;;;;;;19.98;9.50;;;;;;;19.01;100.00;96600.53;5035890;28;20240;-68
2022/07/24 03:23:52;;;;;;;15.43;9.30;;;;;;;19.17;100.00;96595.47;5035142;28;20205;-68
2022/07/24 03:26:18;;;;;;;16.38;9.40;;;;;;;19.06;100.00;96593.50;5035533;28;20204;-67
2022/07/24 03:28:45;;;;;;;16.63;9.30;;;;;;;19.01;100.00;96600.53;5036768;28;20212;-69
2022/07/24 03:31:11;;;;;;;17.75;9.88;;;;;;;19.12;100.00;96606.00;5035475;28;20216;-68
2022/07/24 03:33:38;;;;;;;20.13;10.10;;;;;;;19.06;100.00;96608.72;5034942;28;20220;-67
2022/07/24 03:36:05;;;;;;;16.38;9.15;;;;;;;19.01;100.00;96598.66;5035415;28;20205;-69
2022/07/24 03:38:33;;;;;;;14.75;8.88;;;;;;;19.14;100.00;96605.78;5035765;28;20229;-68
2022/07/24 03:40:59;;;;;;;19.00;8.32;;;;;;;19.10;100.00;96600.03;5034995;28;20613;-67
2022/07/24 03:43:26;;;;;;;14.10;8.15;;;;;;;18.86;100.00;96604.56;5035170;28;20548;-69
2022/07/24 03:45:52;;;;;;;14.98;8.02;;;;;;;18.82;100.00;96600.72;5035446;28;20205;-68
2022/07/24 03:48:19;;;;;;;15.15;8.38;;;;;;;18.48;100.00;96610.03;5035636;28;20209;-69
2022/07/24 03:50:45;;;;;;;16.92;8.27;;;;;;;18.78;100.00;96605.66;5035640;28;20456;-69
2022/07/24 03:53:12;;;;;;;15.63;8.63;;;;;;;18.97;100.00;96610.03;5034785;28;20206;-68
2022/07/24 03:55:40;;;;;;;16.92;8.63;;;;;;;18.98;100.00;96606.31;5035058;28;20209;-69
2022/07/24 03:58:07;;;;;;;15.57;8.43;;;;;;;18.69;100.00;96601.63;5035534;28;20213;-69
2022/07/24 04:00:33;;;;;;;15.65;8.07;;;;;;;18.70;100.00;96616.63;5035459;28;20735;-69
2022/07/24 04:03:00;;;;;;;19.75;7.90;;;;;;;18.81;100.00;96612.44;5034687;28;20205;-69
2022/07/24 04:05:26;;;;;;;15.10;8.13;;;;;;;18.85;100.00;96621.63;5035261;28;20702;-69
2022/07/24 04:07:53;;;;;;;14.73;7.88;;;;;;;18.79;100.00;96618.00;5035862;28;20205;-70
2022/07/24 04:10:19;;;;;;;13.68;7.95;;;;;;;18.55;100.00;96616.13;5038354;28;20212;-69
2022/07/24 04:12:47;;;;;;;12.38;6.75;;;;;;;18.53;100.00;96617.38;5038354;28;20491;-69
2022/07/24 04:15:14;;;;;;;12.60;7.18;;;;;;;18.38;100.00;96623.03;5038859;28;20468;-69
2022/07/24 04:17:43;;;;;;;12.77;7.13;;;;;;;18.47;100.00;96626.25;5039279;28;20247;-69
2022/07/24 04:20:11;;;;;;;13.63;7.38;;;;;;;18.67;100.00;96629.59;5038415;28;20290;-69
2022/07/24 04:22:37;;;;;;;16.90;7.93;;;;;;;18.58;100.00;96642.41;5037961;28;20594;-69
2022/07/24 04:25:04;;;;;;;13.43;7.90;;;;;;;18.61;100.00;96633.09;5038612;28;20483;-69
2022/07/24 04:27:32;;;;;;;15.38;8.43;;;;;;;18.65;100.00;96627.13;5038617;28;20201;-69
2022/07/24 04:30:00;;;;;;;15.88;8.35;;;;;;;19.04;100.00;96632.13;5039282;28;20205;-70
2022/07/24 04:32:27;;;;;;;15.57;8.73;;;;;;;18.97;100.00;96634.06;5037574;28;20217;-69
2022/07/24 04:34:53;;;;;;;16.05;8.80;;;;;;;19.01;100.00;96627.25;5038056;28;20544;-68
2022/07/24 04:37:20;;;;;;;16.80;9.05;;;;;;;19.20;100.00;96628.94;5038491;28;20581;-68
2022/07/24 04:39:46;;;;;;;17.33;9.73;;;;;;;19.26;100.00;96631.56;5038975;28;20209;-69
2022/07/24 04:42:14;;;;;;;21.35;9.40;;;;;;;19.27;100.00;96622.50;5037672;28;20378;-69
2022/07/24 04:44:40;;;;;;;18.70;8.55;;;;;;;19.34;100.00;96627.78;5038577;28;20300;-68
2022/07/24 04:47:08;;;;;;;21.40;9.00;;;;;;;19.44;100.00;96623.56;5038373;28;20673;-69
2022/07/24 04:49:35;;;;;;;17.40;8.70;;;;;;;19.17;100.00;96626.69;5038176;28;20202;-69
2022/07/24 04:52:01;;;;;;;16.70;8.68;;;;;;;19.18;100.00;96623.00;5038477;28;20236;-68
2022/07/24 04:54:28;;;;;;;18.13;8.77;;;;;;;19.33;100.00;96628.81;5038019;28;20248;-69
2022/07/24 04:56:54;;;;;;;15.50;8.20;;;;;;;19.49;100.00;96630.88;5038022;28;20209;-69
2022/07/24 04:59:21;;;;;;;17.30;9.45;;;;;;;19.57;100.00;96630.63;5038065;28;20674;-69
2022/07/24 05:01:47;;;;;;;22.42;10.00;;;;;;;19.68;100.00;96636.03;5038250;28;20233;-69
2022/07/24 05:04:15;;;;;;;15.98;9.43;;;;;;;19.77;100.00;96640.03;5036955;28;20213;-69
2022/07/24 05:06:42;;;;;;;18.38;9.75;;;;;;;19.90;100.00;96634.53;5037530;28;20205;-68
2022/07/24 05:09:08;;;;;;;17.92;10.38;;;;;;;20.02;100.00;96632.75;5038468;28;20201;-69
2022/07/24 05:11:35;;;;;;;21.50;9.35;;;;;;;20.00;100.00;96632.97;5038212;28;20217;-69
2022/07/24 05:14:01;;;;;;;19.30;10.95;;;;;;;20.18;100.00;96640.97;5036856;28;20220;-69
2022/07/24 05:16:28;;;;;;;18.13;10.35;;;;;;;20.01;100.00;96636.47;5037443;28;20620;-69
2022/07/24 05:18:54;;;;;;;22.55;10.77;;;;;;;19.99;100.00;96634.00;5037900;28;20209;-69
2022/07/24 05:21:22;;;;;;;17.05;9.70;;;;;;;20.21;100.00;96636.00;5036137;28;20221;-69
2022/07/24 05:23:49;;;;;;;20.73;9.60;;;;;;;20.34;100.00;96633.13;5036750;28;20580;-69
2022/07/24 05:26:15;;;;;;;16.65;9.70;;;;;;;20.58;100.00;96632.16;5038470;28;20217;-69
2022/07/24 05:28:42;;;;;;;19.95;10.82;;;;;;;20.66;100.00;96633.69;5038125;28;20669;-69
2022/07/24 05:31:09;;;;;;;20.80;9.30;;;;;;;20.81;100.00;96626.88;5038193;28;20225;-69
2022/07/24 05:33:36;;;;;;;19.05;10.73;;;;;;;20.84;100.00;96629.91;5037798;28;20229;-69
2022/07/24 05:36:03;;;;;;;21.48;10.10;;;;;;;20.93;100.00;96633.88;5037958;28;20558;-69
2022/07/24 05:38:30;;;;;;;20.40;9.85;;;;;;;20.69;100.00;96641.28;5037961;28;20216;-69
2022/07/24 05:40:57;;;;;;;17.92;9.95;;;;;;;20.61;100.00;96639.72;5038464;28;20558;-69
2022/07/24 05:43:23;;;;;;;20.33;10.52;;;;;;;20.66;100.00;96641.72;5037827;28;20579;-69
2022/07/24 05:45:50;;;;;;;19.80;10.18;;;;;;;20.65;100.00;96638.22;5036636;28;20201;-69
2022/07/24 05:48:16;;;;;;;16.92;10.00;;;;;;;20.64;100.00;96633.09;5036106;28;20197;-69
2022/07/24 05:50:43;;;;;;;20.10;10.02;;;;;;;20.57;100.00;96637.72;5038022;28;20216;-69
2022/07/24 05:53:09;;;;;;;23.85;9.65;;;;;;;20.54;100.00;96639.00;5036458;28;20212;-69
2022/07/24 05:55:37;;;;;;;21.25;10.55;;;;;;;20.82;100.00;96641.91;5036771;28;20205;-69
2022/07/24 05:58:04;;;;;;;21.98;11.25;;;;;;;20.69;100.00;96634.03;5037117;28;20201;-69
2022/07/24 06:00:30;;;;;;;19.38;10.23;;;;;;;20.76;100.00;96642.00;5036471;28;20209;-69
2022/07/24 06:02:57;;;;;;;19.70;10.55;;;;;;;20.81;100.00;96644.81;5035904;28;20229;-69
2022/07/24 06:05:23;;;;;;;22.92;10.73;;;;;;;20.89;100.00;96632.72;5037613;28;20208;-69
2022/07/24 06:07:50;;;;;;;18.40;11.00;;;;;;;20.66;100.00;96641.72;5036573;28;20209;-69
2022/07/24 06:10:16;;;;;;;19.75;10.68;;;;;;;20.98;100.00;96634.00;5036575;28;20626;-69
2022/07/24 06:12:44;;;;;;;20.92;10.93;;;;;;;21.19;100.00;96643.34;5036432;28;20236;-69
2022/07/24 06:15:11;;;;;;;29.40;11.88;;;;;;;21.25;100.00;96637.88;5036419;28;20205;-69
2022/07/24 06:17:38;;;;;;;22.33;11.00;;;;;;;21.43;100.00;96635.88;5036131;28;20220;-69
2022/07/24 06:20:06;;;;;;;22.33;10.80;;;;;;;21.64;100.00;96637.19;5035982;28;20298;-70
2022/07/24 06:22:33;;;;;;;24.77;12.00;;;;;;;21.62;100.00;96640.06;5035605;28;20224;-69
2022/07/24 06:24:59;;;;;;;24.95;10.77;;;;;;;21.66;100.00;96640.44;5035948;28;20296;-69
2022/07/24 06:27:26;;;;;;;20.05;11.15;;;;;;;21.65;100.00;96633.44;5037124;28;20201;-70
2022/07/24 06:29:53;;;;;;;24.70;12.35;;;;;;;21.84;99.18;96637.59;5036698;28;20212;-69
2022/07/24 06:32:20;;;;;;;22.45;12.00;;;;;;;21.81;99.48;96646.13;5036317;28;20217;-69
2022/07/24 06:34:46;;;;;;;23.05;12.05;;;;;;;21.86;99.40;96640.88;5037061;28;20201;-69
2022/07/24 06:37:13;;;;;;;22.75;11.85;;;;;;;21.93;98.61;96638.84;5036675;28;20200;-68
2022/07/24 06:39:39;;;;;;;21.42;11.57;;;;;;;22.18;97.14;96638.31;5037437;28;20212;-69
2022/07/24 06:42:06;;;;;;;21.63;11.60;;;;;;;22.13;96.58;96637.41;5036239;28;20221;-68
2022/07/24 06:44:36;;;;;;;23.33;13.10;;;;;;;22.24;95.97;96640.03;5035568;28;20208;-69
2022/07/24 06:47:04;;;;;;;22.15;11.70;;;;;;;22.43;95.83;96640.69;5037008;28;20248;-69
2022/07/24 06:49:30;;;;;;;24.42;11.18;;;;;;;22.62;93.99;96642.94;5036623;28;20566;-69
2022/07/24 06:51:56;;;;;;;21.38;11.60;;;;;;;22.75;93.22;96648.81;5037015;28;20594;-69
2022/07/24 06:54:23;;;;;;;23.17;13.27;;;;;;;22.76;92.50;96646.97;5036058;28;20220;-69
2022/07/24 06:56:50;;;;;;;24.85;11.73;;;;;;;22.93;91.43;96639.72;5035646;28;20569;-68
2022/07/24 06:59:16;;;;;;;21.90;11.93;;;;;;;22.74;92.16;96639.13;5036474;28;20202;-69
2022/07/24 07:01:42;;;;;;;24.23;12.93;;;;;;;22.96;90.39;96642.75;5036506;28;20240;-69
2022/07/24 07:04:10;;;;;;;24.50;12.65;;;;;;;23.09;91.37;96649.69;5035745;28;20205;-69
2022/07/24 07:06:37;;;;;;;22.95;12.05;;;;;;;23.09;90.64;96638.94;5036948;28;20205;-69
2022/07/24 07:09:04;;;;;;;22.60;12.07;;;;;;;23.20;89.58;96646.91;5036322;28;20209;-69
2022/07/24 07:11:30;;;;;;;20.98;11.77;;;;;;;23.38;91.40;96647.50;5036441;28;20236;-69
2022/07/24 07:13:56;;;;;;;25.85;11.55;;;;;;;23.38;90.33;96638.59;5035948;28;20212;-68
2022/07/24 07:16:23;;;;;;;19.52;11.23;;;;;;;23.61;89.68;96647.28;5036558;28;20237;-68
2022/07/24 07:18:49;;;;;;;20.63;11.93;;;;;;;23.75;87.75;96645.91;5036631;28;20208;-68
2022/07/24 07:21:17;;;;;;;18.70;11.30;;;;;;;23.97;87.32;96638.66;5036044;28;20229;-69
2022/07/24 07:23:44;;;;;;;18.20;10.30;;;;;;;24.04;87.67;96644.66;5035285;28;20303;-69
2022/07/24 07:26:10;;;;;;;16.98;10.20;;;;;;;24.07;86.33;96644.13;5036761;28;20216;-69
2022/07/24 07:28:37;;;;;;;21.30;11.50;;;;;;;24.12;85.31;96646.91;5034839;28;20207;-68
2022/07/24 07:31:04;;;;;;;19.10;10.88;;;;;;;24.28;85.74;96646.03;5035532;28;20220;-70
2022/07/24 07:33:30;;;;;;;16.25;10.27;;;;;;;24.24;86.41;96640.31;5035230;28;20201;-68
2022/07/24 07:35:57;;;;;;;21.10;10.63;;;;;;;24.05;84.82;96647.09;5034891;28;20554;-69
2022/07/24 07:38:24;;;;;;;16.80;10.45;;;;;;;24.37;81.45;96639.13;5035540;28;20205;-67
2022/07/24 07:40:51;;;;;;;21.10;10.45;;;;;;;24.42;81.22;96636.53;5035611;28;20216;-68
2022/07/24 07:43:17;;;;;;;16.15;10.20;;;;;;;24.55;78.97;96636.13;5034773;28;20244;-69
2022/07/24 07:45:44;;;;;;;17.33;9.93;;;;;;;24.63;77.90;96637.28;5039618;28;20208;-69
2022/07/24 07:48:11;;;;;;;17.02;9.20;;;;;;;24.74;85.57;96636.31;5040228;28;20209;-69
2022/07/24 07:50:37;;;;;;;15.35;8.68;;;;;;;25.09;83.33;96635.84;5039693;28;20211;-69
2022/07/24 07:53:04;;;;;;;16.25;9.75;;;;;;;25.01;76.86;96637.09;5039149;28;20209;-69
2022/07/24 07:55:31;;;;;;;18.75;9.88;;;;;;;25.26;76.93;96640.84;5040235;28;20212;-69
2022/07/24 07:57:58;;;;;;;18.33;9.35;;;;;;;25.49;77.85;96635.06;5040230;28;20209;-68
2022/07/24 08:00:24;;;;;;;15.05;8.98;;;;;;;25.54;79.11;96637.81;5039753;28;20208;-68
2022/07/24 08:02:51;;;;;;;17.63;9.05;;;;;;;25.73;76.73;96635.53;5038975;28;20728;-68
2022/07/24 08:05:18;;;;;;;14.43;8.13;;;;;;;25.59;75.78;96637.03;5039495;28;20875;-69
2022/07/24 08:07:44;;;;;;;13.30;8.20;;;;;;;25.42;74.07;96634.50;5038359;28;20209;-68
2022/07/24 08:10:11;;;;;;;14.18;8.20;;;;;;;25.73;73.49;96636.34;5039615;28;20209;-69
2022/07/24 08:12:39;;;;;;;15.23;8.07;;;;;;;25.83;74.96;96637.19;5039083;28;20228;-69
2022/07/24 08:15:07;;;;;;;12.60;8.05;;;;;;;25.93;77.26;96625.66;5039364;28;20871;-67
2022/07/24 08:17:34;;;;;;;14.95;8.07;;;;;;;25.86;73.75;96625.91;5039809;28;20259;-69
2022/07/24 08:20:00;;;;;;;15.13;8.07;;;;;;;25.92;72.79;96630.22;5039321;28;20213;-69
2022/07/24 08:22:27;;;;;;;17.73;8.65;;;;;;;25.97;71.62;96627.56;5037955;28;20229;-68
2022/07/24 08:24:53;;;;;;;12.60;7.57;;;;;;;26.14;72.54;96627.34;5039635;28;20214;-68
2022/07/24 08:27:20;;;;;;;10.93;7.50;;;;;;;26.24;73.37;96625.50;5040193;28;20525;-69
2022/07/24 08:29:48;;;;;;;13.40;8.30;;;;;;;26.37;72.17;96616.91;5039300;28;20209;-68
2022/07/24 08:32:14;;;;;;;13.30;7.53;;;;;;;26.48;69.90;96627.50;5038732;28;20228;-69
2022/07/24 08:34:40;;;;;;;13.15;7.45;;;;;;;26.76;65.97;96621.63;5039106;28;20688;-69
2022/07/24 08:37:07;;;;;;;14.75;7.05;;;;;;;26.71;62.76;96620.81;5038509;28;20681;-70
2022/07/24 08:39:34;;;;;;;10.35;7.43;;;;;;;26.88;62.48;96618.66;5038753;28;20744;-69
2022/07/24 08:42:00;;;;;;;12.38;7.00;;;;;;;27.15;62.92;96617.31;5038039;28;20229;-69
2022/07/24 08:44:27;;;;;;;10.68;7.03;;;;;;;27.23;61.86;96620.31;5036983;28;20202;-70
2022/07/24 08:46:55;;;;;;;19.50;7.57;;;;;;;27.08;63.92;96620.31;5037676;28;20209;-69
2022/07/24 08:49:22;;;;;;;11.68;6.82;;;;;;;27.40;61.69;96617.31;5038665;28;20204;-70
2022/07/24 08:51:50;;;;;;;12.30;7.00;;;;;;;27.66;61.27;96617.06;5037969;28;20228;-69
2022/07/24 08:54:16;;;;;;;11.55;6.95;;;;;;;27.34;61.79;96627.34;5037480;28;20204;-68
2022/07/24 08:56:43;;;;;;;10.95;7.28;;;;;;;27.04;60.76;96623.84;5038401;28;20209;-69
2022/07/24 08:59:17;;;;;;;10.40;6.78;;;;;;;27.39;60.02;96624.66;5037714;28;20208;-69
2022/07/24 09:01:43;;;;;;;9.40;6.55;;;;;;;27.63;60.65;96627.63;5035339;28;20519;-69
2022/07/24 09:04:32;;;;;;;11.93;6.53;;;;;;;28.10;57.38;96620.72;5035337;28;20854;-69
2022/07/24 09:06:59;;;;;;;8.73;5.75;;;;;;;28.20;57.33;96628.84;5036937;28;20201;-70
2022/07/24 09:09:26;;;;;;;8.90;6.30;;;;;;;28.24;55.28;96624.47;5036461;28;20204;-69
2022/07/24 09:12:03;;;;;;;12.90;6.50;;;;;;;28.56;56.91;96629.16;5037196;28;20821;-70
2022/07/24 09:14:31;;;;;;;11.23;6.60;;;;;;;28.61;56.69;96626.44;5036276;28;20201;-68
2022/07/24 09:17:02;;;;;;;9.75;6.88;;;;;;;28.73;54.35;96618.81;5037491;28;20370;-68
2022/07/24 09:19:29;;;;;;;11.68;6.93;;;;;;;28.46;53.72;96617.56;5037015;28;20220;-69
2022/07/24 09:21:57;;;;;;;8.98;6.45;;;;;;;28.85;56.10;96618.47;5036782;28;20438;-69
2022/07/24 09:24:23;;;;;;;10.90;6.65;;;;;;;28.87;55.89;96608.97;5036683;28;20201;-69
2022/07/24 09:26:52;;;;;;;9.13;6.57;;;;;;;28.85;55.09;96611.13;5037020;28;20239;-69
2022/07/24 09:29:20;;;;;;;10.45;6.43;;;;;;;28.83;54.14;96613.34;5036860;28;20636;-70
2022/07/24 09:31:52;;;;;;;16.15;6.93;;;;;;;28.82;55.11;96617.13;5038143;28;20221;-69
2022/07/24 09:34:18;;;;;;;11.00;6.70;;;;;;;28.59;53.48;96615.06;5035469;28;20231;-67
2022/07/24 09:36:57;;;;;;;9.70;6.47;;;;;;;28.63;51.79;96609.91;5035856;28;20198;-69
2022/07/24 09:39:25;;;;;;;10.98;6.95;;;;;;;28.44;55.02;96609.72;5036341;28;20212;-69
2022/07/24 09:41:53;;;;;;;10.02;6.72;;;;;;;28.76;53.48;96601.97;5037024;28;20264;-69
2022/07/24 09:44:19;;;;;;;11.00;6.45;;;;;;;29.10;52.54;96602.81;5036327;28;20237;-69
2022/07/24 09:46:47;;;;;;;11.55;6.90;;;;;;;29.17;52.23;96597.84;5036745;28;20505;-68
2022/07/24 09:49:20;;;;;;;9.77;6.55;;;;;;;29.26;53.68;96599.66;5037624;28;20232;-68
2022/07/24 09:52:10;;;;;;;9.45;6.50;;;;;;;29.54;52.92;96592.66;5036062;28;20221;-69
2022/07/24 09:54:39;;;;;;;10.25;6.07;;;;;;;29.06;53.45;96590.88;5035817;28;20539;-70
2022/07/24 09:57:23;;;;;;;10.25;6.47;;;;;;;29.58;48.52;96592.63;5036278;28;20202;-70
2022/07/24 09:59:52;;;;;;;17.00;6.82;;;;;;;29.14;50.10;96587.56;5035953;28;20201;-69
2022/07/24 10:02:20;;;;;;;8.63;5.93;;;;;;;29.47;52.87;96589.44;5034727;28;20224;-69
2022/07/24 10:04:48;;;;;;;9.77;5.97;;;;;;;29.52;50.11;96582.09;5036425;28;20205;-70
2022/07/24 10:07:19;;;;;;;9.43;6.20;;;;;;;29.30;49.51;96581.75;5035479;28;20414;-68
2022/07/24 10:09:47;;;;;;;9.60;6.47;;;;;;;28.89;52.99;96578.81;5036865;28;20209;-69
2022/07/24 10:12:16;;;;;;;8.48;6.18;;;;;;;29.16;50.77;96580.78;5035804;28;20240;-69
2022/07/24 10:14:44;;;;;;;10.88;6.22;;;;;;;29.45;51.38;96578.09;5036246;28;20697;-69
2022/07/24 10:17:13;;;;;;;11.43;6.07;;;;;;;29.77;49.24;96577.19;5035718;28;20677;-70
2022/07/24 10:19:42;;;;;;;9.45;6.13;;;;;;;29.22;47.93;96574.19;5035906;28;20213;-68
2022/07/24 10:22:12;;;;;;;10.48;6.18;;;;;;;29.08;50.01;96575.13;5036165;28;20220;-68
2022/07/24 10:25:07;;;;;;;9.88;6.43;;;;;;;28.78;49.63;96569.13;5035260;28;20756;-69
2022/07/24 10:27:35;;;;;;;9.00;6.10;;;;;;;28.71;49.98;96569.41;5035930;28;20590;-68
2022/07/24 10:30:06;;;;;;;9.90;6.30;;;;;;;28.80;50.91;96575.09;5036179;28;20201;-67
2022/07/24 10:32:34;;;;;;;8.38;6.10;;;;;;;28.80;48.67;96575.09;5035240;28;20220;-69
2022/07/24 10:35:09;;;;;;;9.18;6.22;;;;;;;29.32;46.85;96567.91;5035551;28;20205;-70
2022/07/24 10:37:44;;;;;;;7.80;5.25;;;;;;;29.90;44.97;96568.38;5036357;28;20201;-69
2022/07/24 10:40:21;;;;;;;11.27;5.85;;;;;;;30.27;45.42;96563.03;5037032;28;20857;-69
2022/07/24 10:43:14;;;;;;;8.65;5.78;;;;;;;29.93;44.95;96567.78;5035747;28;20252;-69
2022/07/24 10:45:43;;;;;;;9.13;6.18;;;;;;;29.58;47.17;96577.41;5034853;28;20560;-69
2022/07/24 10:48:30;;;;;;;10.40;6.30;;;;;;;29.26;48.38;96563.56;5036573;28;20202;-69
2022/07/24 10:51:11;;;;;;;8.75;6.07;;;;;;;28.92;51.05;96570.09;5036475;28;20229;-69
2022/07/24 10:53:51;;;;;;;8.93;6.20;;;;;;;28.60;47.92;96559.75;5036169;28;20296;-70
2022/07/24 10:56:22;;;;;;;9.32;6.10;;;;;;;28.58;48.20;96564.63;5035980;28;20207;-69
2022/07/24 10:58:58;;;;;;;8.75;6.10;;;;;;;28.70;48.02;96559.66;5036304;28;21088;-71
2022/07/24 11:01:33;;;;;;;10.48;6.38;;;;;;;28.70;50.34;96561.56;5035947;28;20228;-70
2022/07/24 11:04:00;;;;;;;9.25;6.57;;;;;;;28.73;48.05;96553.72;5035351;28;20225;-69
2022/07/24 11:06:42;;;;;;;12.88;6.40;;;;;;;29.22;46.84;96557.09;5035561;28;20646;-69
2022/07/24 11:09:08;;;;;;;8.32;6.13;;;;;;;29.23;49.01;96554.09;5036342;28;20206;-70
2022/07/24 11:11:41;;;;;;;11.10;6.30;;;;;;;29.95;48.85;96557.44;5036752;28;20232;-70
2022/07/24 11:14:08;;;;;;;8.15;6.05;;;;;;;30.25;48.34;96548.91;5035830;28;20251;-70
2022/07/24 11:16:35;;;;;;;10.38;5.78;;;;;;;30.80;47.05;96548.91;5036692;28;20212;-69
2022/07/24 11:19:31;;;;;;;9.77;6.20;;;;;;;30.39;44.78;96547.88;5038406;28;20201;-70
2022/07/24 11:22:12;;;;;;;14.18;6.00;;;;;;;30.01;46.33;96545.38;5040525;28;20224;-70